logo
Search for airport 
image banner adimage banner adimage banner ad
image banner ad

LKJH - Jindrichuv Hradec

Located in Jindrichuv Hradec, Czech Republic

ICAO - LKJH, IATA -

Data provided by Airmate  

General information

Coordinates: N49°9'3" E14°58'18"
Elevation is 1683 feet MSL.
 
View others Airports in South Bohemian Region

Operational data

Special qualification required
Current time UTC:
Current local time:
Weather at : - ( 0 km )
METAR: YMLT 171909Z AUTO 01007KT 0150 // SCT001 07/07 Q1016 RF00.0/000.0
View NOTAMs / SUP AIP / TFR affecting this airport [VIEW]
Communications frequencies: [VIEW]

Runways:

RWY identifierQFULength (ft)Width (ft)SurfaceLDA (ft)
07R252672GRASS
25L252672GRASS
07L227472CONC+ASPH
25R227472CONC+ASPH

Airport contact information

Address: Jindrichuv Hradec Czech Republic

Other aviation service providers

Flight schools

Mk Air S.R.O. Secar

Mk Air S.R.O. Secar
+420602344724

Aviation club (not for profit)

Aeroklub Jindřichův Hradec

Aeroklub Jindřichův Hradec
akjh@letistejh.cz+420384321009

Satellite view of LKJH